PWSweather.com
Personal Weather Stations
Station Observations
KGAROSWE1
Roswell (historic Mill Village), Roswell, GA 30075

Roswell (historic Mill Village)Roswell, GA 30075

Lat: 34.014545, Lon: -84.358498

Elevation: 1025

Station Type: Davis Vantage Vue

http://www.roswellweather.net

Latest ConditionsUpdated 7:02:29 AM EST Tuesday, Dec 6, 2016
Currently Today's Max Today's Min Today's Average
Temperature 50.3°F10.2°C 50.3°F10.2°C 50.3°F10.2°C 50.3°F10.2°C
Dew Point 49.8°F9.9°C 49.8°F9.9°C 49.8°F9.9°C 49.8°F9.9°C
Winds 1.0 mph NE1.6 kmh NE 1.0 mph NE1.6 kmh NE - 1.0 mph 1.6 kmh
Wind Gusts 1.0 mph1.6 kmh 1.0 mph1.6 kmh - -
Humidity 98% 98% 98% 98%
Pressure 29.72 in1006.4 mb 29.86 in1011.2 mb 29.72 in1006.4 mb -
Hour Temp Dew Point Humidity Winds Wind Gusts Pressure Precip Precip Rate Daily Precip Total
07:02 AM 50.3°F10.2°C 49.8°F9.9°C 98% 1.0 mph NE1.6 kmh NE 1.0 mph1.6 kmh 29.72 in1006.4 mb 0.00 in0.0 mm 0.00 in0.0 mm 0.00 in0.0 mm
06:54 AM 50.3°F10.2°C 49.8°F9.9°C 98% 1.0 mph NE1.6 kmh NE 1.0 mph1.6 kmh 29.72 in1006.4 mb 0.00 in0.0 mm 0.00 in0.0 mm 0.00 in0.0 mm
06:46 AM 50.3°F10.2°C 49.8°F9.9°C 98% 1.0 mph NE1.6 kmh NE 1.0 mph1.6 kmh 29.72 in1006.4 mb 0.00 in0.0 mm 0.00 in0.0 mm 0.00 in0.0 mm
06:38 AM 50.3°F10.2°C 49.8°F9.9°C 98% 1.0 mph NE1.6 kmh NE 1.0 mph1.6 kmh 29.72 in1006.4 mb 0.00 in0.0 mm 0.00 in0.0 mm 0.00 in0.0 mm
06:30 AM 50.3°F10.2°C 49.8°F9.9°C 98% 1.0 mph NE1.6 kmh NE 1.0 mph1.6 kmh 29.73 in1006.8 mb 0.00 in0.0 mm 0.00 in0.0 mm 0.00 in0.0 mm
06:22 AM 50.3°F10.2°C 49.8°F9.9°C 98% 1.0 mph NE1.6 kmh NE 1.0 mph1.6 kmh 29.74 in1007.1 mb 0.00 in0.0 mm 0.00 in0.0 mm 0.00 in0.0 mm
06:14 AM 50.3°F10.2°C 49.8°F9.9°C 98% 1.0 mph NE1.6 kmh NE 1.0 mph1.6 kmh 29.76 in1007.8 mb 0.00 in0.0 mm 0.00 in0.0 mm 0.00 in0.0 mm
06:06 AM 50.3°F10.2°C 49.8°F9.9°C 98% 1.0 mph NE1.6 kmh NE 1.0 mph1.6 kmh 29.76 in1007.8 mb 0.00 in0.0 mm 0.00 in0.0 mm 0.00 in0.0 mm
05:58 AM 50.3°F10.2°C 49.8°F9.9°C 98% 1.0 mph NE1.6 kmh NE 1.0 mph1.6 kmh 29.76 in1007.8 mb 0.00 in0.0 mm 0.00 in0.0 mm 0.00 in0.0 mm
05:50 AM 50.3°F10.2°C 49.8°F9.9°C 98% 1.0 mph NE1.6 kmh NE 1.0 mph1.6 kmh 29.76 in1007.8 mb 0.00 in0.0 mm 0.00 in0.0 mm 0.00 in0.0 mm
05:42 AM 50.3°F10.2°C 49.8°F9.9°C 98% 1.0 mph NE1.6 kmh NE 1.0 mph1.6 kmh 29.76 in1007.8 mb 0.00 in0.0 mm 0.00 in0.0 mm 0.00 in0.0 mm
05:34 AM 50.3°F10.2°C 49.8°F9.9°C 98% 1.0 mph NE1.6 kmh NE 1.0 mph1.6 kmh 29.76 in1007.8 mb 0.00 in0.0 mm 0.00 in0.0 mm 0.00 in0.0 mm
05:26 AM 50.3°F10.2°C 49.8°F9.9°C 98% 1.0 mph NE1.6 kmh NE 1.0 mph1.6 kmh 29.76 in1007.8 mb 0.00 in0.0 mm 0.00 in0.0 mm 0.00 in0.0 mm
05:18 AM 50.3°F10.2°C 49.8°F9.9°C 98% 1.0 mph NE1.6 kmh NE 1.0 mph1.6 kmh 29.77 in1008.1 mb 0.00 in0.0 mm 0.00 in0.0 mm 0.00 in0.0 mm
05:10 AM 50.3°F10.2°C 49.8°F9.9°C 98% 1.0 mph NE1.6 kmh NE 1.0 mph1.6 kmh 29.76 in1007.8 mb 0.00 in0.0 mm 0.00 in0.0 mm 0.00 in0.0 mm
05:02 AM 50.3°F10.2°C 49.8°F9.9°C 98% 1.0 mph NE1.6 kmh NE 1.0 mph1.6 kmh 29.76 in1007.8 mb 0.00 in0.0 mm 0.00 in0.0 mm 0.00 in0.0 mm
04:54 AM 50.3°F10.2°C 49.8°F9.9°C 98% 1.0 mph NE1.6 kmh NE 1.0 mph1.6 kmh 29.76 in1007.8 mb 0.00 in0.0 mm 0.00 in0.0 mm 0.00 in0.0 mm
04:46 AM 50.3°F10.2°C 49.8°F9.9°C 98% 1.0 mph NE1.6 kmh NE 1.0 mph1.6 kmh 29.77 in1008.1 mb 0.00 in0.0 mm 0.00 in0.0 mm 0.00 in0.0 mm
04:38 AM 50.3°F10.2°C 49.8°F9.9°C 98% 1.0 mph NE1.6 kmh NE 1.0 mph1.6 kmh 29.78 in1008.5 mb 0.00 in0.0 mm 0.00 in0.0 mm 0.00 in0.0 mm
04:30 AM 50.3°F10.2°C 49.8°F9.9°C 98% 1.0 mph NE1.6 kmh NE 1.0 mph1.6 kmh 29.78 in1008.5 mb 0.00 in0.0 mm 0.00 in0.0 mm 0.00 in0.0 mm
04:22 AM 50.3°F10.2°C 49.8°F9.9°C 98% 1.0 mph NE1.6 kmh NE 1.0 mph1.6 kmh 29.78 in1008.5 mb 0.00 in0.0 mm 0.00 in0.0 mm 0.00 in0.0 mm
04:14 AM 50.3°F10.2°C 49.8°F9.9°C 98% 1.0 mph NE1.6 kmh NE 1.0 mph1.6 kmh 29.78 in1008.5 mb 0.00 in0.0 mm 0.00 in0.0 mm 0.00 in0.0 mm
04:06 AM 50.3°F10.2°C 49.8°F9.9°C 98% 1.0 mph NE1.6 kmh NE 1.0 mph1.6 kmh 29.79 in1008.8 mb 0.00 in0.0 mm 0.00 in0.0 mm 0.00 in0.0 mm
03:58 AM 50.3°F10.2°C 49.8°F9.9°C 98% 1.0 mph NE1.6 kmh NE 1.0 mph1.6 kmh 29.80 in1009.1 mb 0.00 in0.0 mm 0.00 in0.0 mm 0.00 in0.0 mm
03:50 AM 50.3°F10.2°C 49.8°F9.9°C 98% 1.0 mph NE1.6 kmh NE 1.0 mph1.6 kmh 29.79 in1008.8 mb 0.00 in0.0 mm 0.00 in0.0 mm 0.00 in0.0 mm
03:42 AM 50.3°F10.2°C 49.8°F9.9°C 98% 1.0 mph NE1.6 kmh NE 1.0 mph1.6 kmh 29.80 in1009.1 mb 0.00 in0.0 mm 0.00 in0.0 mm 0.00 in0.0 mm
03:34 AM 50.3°F10.2°C 49.8°F9.9°C 98% 1.0 mph NE1.6 kmh NE 1.0 mph1.6 kmh 29.80 in1009.1 mb 0.00 in0.0 mm 0.00 in0.0 mm 0.00 in0.0 mm
03:26 AM 50.3°F10.2°C 49.8°F9.9°C 98% 1.0 mph NE1.6 kmh NE 1.0 mph1.6 kmh 29.80 in1009.1 mb 0.00 in0.0 mm 0.00 in0.0 mm 0.00 in0.0 mm
03:18 AM 50.3°F10.2°C 49.8°F9.9°C 98% 1.0 mph NE1.6 kmh NE 1.0 mph1.6 kmh 29.80 in1009.1 mb 0.00 in0.0 mm 0.00 in0.0 mm 0.00 in0.0 mm
03:10 AM 50.3°F10.2°C 49.8°F9.9°C 98% 1.0 mph NE1.6 kmh NE 1.0 mph1.6 kmh 29.79 in1008.8 mb 0.00 in0.0 mm 0.00 in0.0 mm 0.00 in0.0 mm
03:02 AM 50.3°F10.2°C 49.8°F9.9°C 98% 1.0 mph NE1.6 kmh NE 1.0 mph1.6 kmh 29.81 in1009.5 mb 0.00 in0.0 mm 0.00 in0.0 mm 0.00 in0.0 mm
02:54 AM 50.3°F10.2°C 49.8°F9.9°C 98% 1.0 mph NE1.6 kmh NE 1.0 mph1.6 kmh 29.82 in1009.8 mb 0.00 in0.0 mm 0.00 in0.0 mm 0.00 in0.0 mm
02:46 AM 50.3°F10.2°C 49.8°F9.9°C 98% 1.0 mph NE1.6 kmh NE 1.0 mph1.6 kmh 29.81 in1009.5 mb 0.00 in0.0 mm 0.00 in0.0 mm 0.00 in0.0 mm
02:38 AM 50.3°F10.2°C 49.8°F9.9°C 98% 1.0 mph NE1.6 kmh NE 1.0 mph1.6 kmh 29.82 in1009.8 mb 0.00 in0.0 mm 0.00 in0.0 mm 0.00 in0.0 mm
02:30 AM 50.3°F10.2°C 49.8°F9.9°C 98% 1.0 mph NE1.6 kmh NE 1.0 mph1.6 kmh 29.82 in1009.8 mb 0.00 in0.0 mm 0.00 in0.0 mm 0.00 in0.0 mm
02:22 AM 50.3°F10.2°C 49.8°F9.9°C 98% 1.0 mph NE1.6 kmh NE 1.0 mph1.6 kmh 29.82 in1009.8 mb 0.00 in0.0 mm 0.00 in0.0 mm 0.00 in0.0 mm
02:14 AM 50.3°F10.2°C 49.8°F9.9°C 98% 1.0 mph NE1.6 kmh NE 1.0 mph1.6 kmh 29.83 in1010.2 mb 0.00 in0.0 mm 0.00 in0.0 mm 0.00 in0.0 mm
02:06 AM 50.3°F10.2°C 49.8°F9.9°C 98% 1.0 mph NE1.6 kmh NE 1.0 mph1.6 kmh 29.84 in1010.5 mb 0.00 in0.0 mm 0.00 in0.0 mm 0.00 in0.0 mm
01:58 AM 50.3°F10.2°C 49.8°F9.9°C 98% 1.0 mph NE1.6 kmh NE 1.0 mph1.6 kmh 29.84 in1010.5 mb 0.00 in0.0 mm 0.00 in0.0 mm 0.00 in0.0 mm
01:50 AM 50.3°F10.2°C 49.8°F9.9°C 98% 1.0 mph NE1.6 kmh NE 1.0 mph1.6 kmh 29.84 in1010.5 mb 0.00 in0.0 mm 0.00 in0.0 mm 0.00 in0.0 mm
01:42 AM 50.3°F10.2°C 49.8°F9.9°C 98% 1.0 mph NE1.6 kmh NE 1.0 mph1.6 kmh 29.84 in1010.5 mb 0.00 in0.0 mm 0.00 in0.0 mm 0.00 in0.0 mm
01:34 AM 50.3°F10.2°C 49.8°F9.9°C 98% 1.0 mph NE1.6 kmh NE 1.0 mph1.6 kmh 29.83 in1010.2 mb 0.00 in0.0 mm 0.00 in0.0 mm 0.00 in0.0 mm
01:26 AM 50.3°F10.2°C 49.8°F9.9°C 98% 1.0 mph NE1.6 kmh NE 1.0 mph1.6 kmh 29.84 in1010.5 mb 0.00 in0.0 mm 0.00 in0.0 mm 0.00 in0.0 mm
01:18 AM 50.3°F10.2°C 49.8°F9.9°C 98% 1.0 mph NE1.6 kmh NE 1.0 mph1.6 kmh 29.84 in1010.5 mb 0.00 in0.0 mm 0.00 in0.0 mm 0.00 in0.0 mm
01:10 AM 50.3°F10.2°C 49.8°F9.9°C 98% 1.0 mph NE1.6 kmh NE 1.0 mph1.6 kmh 29.84 in1010.5 mb 0.00 in0.0 mm 0.00 in0.0 mm 0.00 in0.0 mm
01:02 AM 50.3°F10.2°C 49.8°F9.9°C 98% 1.0 mph NE1.6 kmh NE 1.0 mph1.6 kmh 29.84 in1010.5 mb 0.00 in0.0 mm 0.00 in0.0 mm 0.00 in0.0 mm
12:54 AM 50.3°F10.2°C 49.8°F9.9°C 98% 1.0 mph NE1.6 kmh NE 1.0 mph1.6 kmh 29.84 in1010.5 mb 0.00 in0.0 mm 0.00 in0.0 mm 0.00 in0.0 mm
12:46 AM 50.3°F10.2°C 49.8°F9.9°C 98% 1.0 mph NE1.6 kmh NE 1.0 mph1.6 kmh 29.84 in1010.5 mb 0.00 in0.0 mm 0.00 in0.0 mm 0.00 in0.0 mm
12:38 AM 50.3°F10.2°C 49.8°F9.9°C 98% 1.0 mph NE1.6 kmh NE 1.0 mph1.6 kmh 29.85 in1010.8 mb 0.00 in0.0 mm 0.00 in0.0 mm 0.00 in0.0 mm
12:30 AM 50.3°F10.2°C 49.8°F9.9°C 98% 1.0 mph NE1.6 kmh NE 1.0 mph1.6 kmh 29.85 in1010.8 mb 0.00 in0.0 mm 0.00 in0.0 mm 0.00 in0.0 mm
12:22 AM 50.3°F10.2°C 49.8°F9.9°C 98% 1.0 mph NE1.6 kmh NE 1.0 mph1.6 kmh 29.86 in1011.2 mb 0.00 in0.0 mm 0.00 in0.0 mm 0.00 in0.0 mm
12:14 AM 50.3°F10.2°C 49.8°F9.9°C 98% 1.0 mph NE1.6 kmh NE 1.0 mph1.6 kmh 29.86 in1011.2 mb 0.00 in0.0 mm 0.00 in0.0 mm 0.00 in0.0 mm
12:06 AM 50.3°F10.2°C 49.8°F9.9°C 98% 1.0 mph NE1.6 kmh NE 1.0 mph1.6 kmh 29.86 in1011.2 mb 0.00 in0.0 mm 0.00 in0.0 mm 0.00 in0.0 mm